Time;durP1;ratioP1;P1;durP2;ratioP2;P2;SDS_P1;SDS_P2;PMS_P1;PMS_P2;Temp;Humidity;BMP_temperature;BMP_pressure;BME280_temperature;BME280_humidity;BME280_pressure;Samples;Min_cycle;Max_cycle;Signal;HPM_P1;HPM_P2
2022/05/17 00:00:43;;;;;;;19.63;15.70;;;;;;;;;;2073653;28;20665;-56
2022/05/17 00:01:43;;;;;;;17.55;15.57;;;;;;;;;;2073382;28;20243;-55
2022/05/17 00:02:44;;;;;;;20.27;15.65;;;;;;;;;;2073593;28;20581;-56
2022/05/17 00:03:44;;;;;;;18.92;15.68;;;;;;;;;;2073656;28;20287;-58
2022/05/17 00:04:44;;;;;;;17.13;14.25;;;;;;;;;;2073635;28;20227;-57
2022/05/17 00:05:45;;;;;;;18.58;14.60;;;;;;;;;;2064763;28;20212;-56
2022/05/17 00:06:46;;;;;;;20.95;15.00;;;;;;;;;;2065541;28;20189;-56
2022/05/17 00:07:47;;;;;;;17.48;14.55;;;;;;;;;;2064761;28;20561;-57
2022/05/17 00:08:47;;;;;;;20.35;14.45;;;;;;;;;;2064816;28;20174;-59
2022/05/17 00:09:47;;;;;;;16.67;14.43;;;;;;;;;;2064923;28;20255;-58
2022/05/17 00:10:48;;;;;;;20.50;14.35;;;;;;;;;;2064742;28;20237;-59
2022/05/17 00:11:49;;;;;;;19.70;13.45;;;;;;;;;;2073475;28;20188;-57
2022/05/17 00:12:50;;;;;;;18.70;14.05;;;;;;;;;;2073791;28;20183;-59
2022/05/17 00:13:51;;;;;;;17.55;13.65;;;;;;;;;;2064889;28;20205;-56
2022/05/17 00:14:51;;;;;;;24.58;14.18;;;;;;;;;;2064594;28;20252;-57
2022/05/17 00:15:52;;;;;;;15.52;13.85;;;;;;;;;;2073537;28;20165;-58
2022/05/17 00:16:52;;;;;;;18.33;13.65;;;;;;;;;;2064696;28;20213;-56
2022/05/17 00:17:53;;;;;;;20.58;14.80;;;;;;;;;;2064615;28;20208;-58
2022/05/17 00:18:54;;;;;;;14.65;13.05;;;;;;;;;;2064651;28;20242;-59
2022/05/17 00:19:54;;;;;;;16.75;13.98;;;;;;;;;;2064595;28;20713;-58
2022/05/17 00:20:56;;;;;;;14.13;12.68;;;;;;;;;;2064739;28;20178;-56
2022/05/17 00:21:57;;;;;;;15.45;13.30;;;;;;;;;;2072843;28;20624;-56
2022/05/17 00:22:57;;;;;;;15.43;12.40;;;;;;;;;;2064370;28;20213;-57
2022/05/17 00:23:57;;;;;;;14.93;13.15;;;;;;;;;;2056321;28;20186;-58
2022/05/17 00:24:58;;;;;;;16.30;13.10;;;;;;;;;;2064528;28;20654;-57
2022/05/17 00:25:58;;;;;;;15.05;12.55;;;;;;;;;;2073438;28;20638;-55
2022/05/17 00:26:58;;;;;;;21.58;12.88;;;;;;;;;;2072846;28;20217;-58
2022/05/17 00:27:59;;;;;;;15.98;12.65;;;;;;;;;;2064453;28;20642;-58
2022/05/17 00:29:03;;;;;;;13.35;11.57;;;;;;;;;;2064655;28;20188;-58
2022/05/17 00:30:05;;;;;;;15.85;12.43;;;;;;;;;;2073540;28;20177;-55
2022/05/17 00:31:06;;;;;;;15.90;11.98;;;;;;;;;;2073583;28;20554;-56
2022/05/17 00:32:07;;;;;;;15.50;12.85;;;;;;;;;;2073537;28;20215;-59
2022/05/17 00:33:07;;;;;;;18.25;12.82;;;;;;;;;;2073370;28;20180;-57
2022/05/17 00:34:07;;;;;;;13.77;11.93;;;;;;;;;;2064339;28;20219;-56
2022/05/17 00:35:08;;;;;;;13.68;11.73;;;;;;;;;;2068108;28;20619;-58
2022/05/17 00:36:08;;;;;;;14.05;12.50;;;;;;;;;;2081685;28;20563;-60
2022/05/17 00:37:09;;;;;;;17.92;12.70;;;;;;;;;;2081357;28;20552;-55
2022/05/17 00:38:09;;;;;;;16.27;12.75;;;;;;;;;;2081650;28;20163;-56
2022/05/17 00:39:10;;;;;;;17.80;11.88;;;;;;;;;;2076305;28;20181;-55
2022/05/17 00:40:11;;;;;;;16.02;12.55;;;;;;;;;;2073333;28;20220;-60
2022/05/17 00:41:11;;;;;;;12.75;11.45;;;;;;;;;;2073217;28;20192;-59
2022/05/17 00:42:12;;;;;;;14.02;11.70;;;;;;;;;;2073291;28;20653;-56
2022/05/17 00:43:14;;;;;;;19.02;13.25;;;;;;;;;;2072964;28;20177;-57
2022/05/17 00:45:34;;;;;;;13.60;10.55;;;;;;;;;;2073406;28;20556;-53
2022/05/17 00:46:36;;;;;;;16.40;12.35;;;;;;;;;;2065112;28;20197;-54
2022/05/17 00:47:42;;;;;;;15.88;11.27;;;;;;;;;;2064887;28;20527;-55
2022/05/17 00:48:42;;;;;;;12.60;11.32;;;;;;;;;;2073552;28;20173;-56
2022/05/17 00:49:55;;;;;;;16.05;11.38;;;;;;;;;;2075175;28;20782;-54
2022/05/17 00:50:56;;;;;;;12.10;10.90;;;;;;;;;;2079218;28;20181;-53
2022/05/17 00:51:58;;;;;;;14.77;10.93;;;;;;;;;;2070814;28;20197;-53
2022/05/17 00:53:00;;;;;;;14.38;11.80;;;;;;;;;;2070393;28;20686;-55
2022/05/17 00:54:06;;;;;;;17.60;11.25;;;;;;;;;;2077967;28;20227;-55
2022/05/17 00:55:09;;;;;;;13.57;11.13;;;;;;;;;;2077684;28;20578;-55
2022/05/17 00:56:12;;;;;;;13.77;11.27;;;;;;;;;;2074096;28;20185;-57
2022/05/17 00:57:31;;;;;;;17.90;11.43;;;;;;;;;;2074173;28;20529;-57
2022/05/17 00:58:43;;;;;;;14.10;11.13;;;;;;;;;;2065880;28;20197;-57
2022/05/17 00:59:44;;;;;;;11.68;10.07;;;;;;;;;;2065157;28;20186;-57
2022/05/17 01:00:51;;;;;;;17.73;12.10;;;;;;;;;;2065350;28;20166;-55
2022/05/17 01:01:52;;;;;;;14.45;11.27;;;;;;;;;;2065355;28;20216;-55
2022/05/17 01:02:53;;;;;;;12.95;10.57;;;;;;;;;;2069517;28;20638;-57
2022/05/17 01:03:56;;;;;;;14.13;10.60;;;;;;;;;;2072390;28;20176;-57
2022/05/17 01:04:58;;;;;;;12.32;11.05;;;;;;;;;;2073232;28;20181;-60
2022/05/17 01:05:58;;;;;;;15.25;10.32;;;;;;;;;;2065142;28;20181;-54
2022/05/17 01:07:03;;;;;;;14.07;11.02;;;;;;;;;;2065872;28;20198;-57
2022/05/17 01:08:05;;;;;;;16.40;11.20;;;;;;;;;;2074693;28;20219;-57
2022/05/17 01:09:06;;;;;;;13.30;10.98;;;;;;;;;;2067667;28;20207;-57
2022/05/17 01:10:08;;;;;;;15.18;10.52;;;;;;;;;;2068079;28;20166;-55
2022/05/17 01:11:08;;;;;;;12.00;10.68;;;;;;;;;;2076619;28;20197;-56
2022/05/17 01:12:08;;;;;;;14.02;11.38;;;;;;;;;;2068005;28;20189;-56
2022/05/17 01:15:47;;;;;;;15.48;10.20;;;;;;;;;;2076615;28;20256;-56
2022/05/17 01:16:47;;;;;;;12.18;10.30;;;;;;;;;;2075737;28;20235;-56
2022/05/17 01:17:48;;;;;;;12.13;10.05;;;;;;;;;;2075808;28;20184;-57
2022/05/17 01:18:49;;;;;;;12.18;9.88;;;;;;;;;;2076075;28;20180;-57
2022/05/17 01:19:49;;;;;;;14.52;10.75;;;;;;;;;;2074737;28;20176;-57
2022/05/17 01:20:50;;;;;;;15.55;10.50;;;;;;;;;;2076274;28;20216;-57
2022/05/17 01:21:50;;;;;;;13.32;10.85;;;;;;;;;;2067382;28;20209;-57
2022/05/17 01:22:50;;;;;;;12.90;11.63;;;;;;;;;;2067457;28;20213;-56
2022/05/17 01:23:51;;;;;;;11.25;10.07;;;;;;;;;;2076181;28;20169;-56
2022/05/17 01:24:51;;;;;;;13.02;10.23;;;;;;;;;;2076070;28;20818;-56
2022/05/17 01:25:52;;;;;;;16.20;10.68;;;;;;;;;;2076117;28;20165;-53
2022/05/17 01:27:00;;;;;;;17.15;11.32;;;;;;;;;;2075900;28;20211;-56
2022/05/17 01:28:03;;;;;;;14.55;10.35;;;;;;;;;;2076073;28;20252;-56
2022/05/17 01:29:05;;;;;;;12.70;10.48;;;;;;;;;;2074738;28;20268;-57
2022/05/17 01:30:06;;;;;;;13.90;10.52;;;;;;;;;;2067148;28;20658;-57
2022/05/17 01:31:07;;;;;;;11.63;10.43;;;;;;;;;;2058667;28;20174;-57
2022/05/17 01:32:09;;;;;;;18.20;10.52;;;;;;;;;;2066356;28;20177;-56
2022/05/17 01:33:14;;;;;;;15.38;10.40;;;;;;;;;;2074451;28;20165;-56
2022/05/17 01:34:14;;;;;;;18.10;10.68;;;;;;;;;;2073998;28;20209;-57
2022/05/17 01:35:14;;;;;;;15.75;10.00;;;;;;;;;;2079119;28;20641;-58
2022/05/17 01:36:16;;;;;;;10.88;9.52;;;;;;;;;;2083713;28;20179;-57
2022/05/17 01:37:17;;;;;;;12.95;10.57;;;;;;;;;;2083155;28;20645;-56
2022/05/17 01:38:18;;;;;;;15.75;10.55;;;;;;;;;;2083359;28;20633;-57
2022/05/17 01:39:19;;;;;;;15.88;10.60;;;;;;;;;;2077362;28;20230;-55
2022/05/17 01:40:19;;;;;;;13.93;10.93;;;;;;;;;;2075526;28;20220;-55
2022/05/17 01:41:20;;;;;;;13.50;9.82;;;;;;;;;;2075471;28;20197;-57
2022/05/17 01:42:20;;;;;;;14.48;10.05;;;;;;;;;;2075643;28;20677;-56
2022/05/17 01:43:21;;;;;;;12.57;10.00;;;;;;;;;;2075853;28;20256;-55
2022/05/17 01:44:22;;;;;;;12.68;9.80;;;;;;;;;;2075368;28;20223;-57
2022/05/17 01:45:23;;;;;;;13.38;9.70;;;;;;;;;;2075863;28;20173;-56
2022/05/17 01:46:23;;;;;;;14.55;10.55;;;;;;;;;;2075345;28;20215;-55
2022/05/17 01:47:23;;;;;;;12.13;9.73;;;;;;;;;;2067576;28;20294;-54
2022/05/17 01:48:24;;;;;;;14.52;9.88;;;;;;;;;;2067202;28;20181;-57
2022/05/17 01:49:24;;;;;;;15.45;10.32;;;;;;;;;;2067294;28;20177;-57
2022/05/17 01:50:24;;;;;;;15.13;10.35;;;;;;;;;;2075257;28;20172;-57
2022/05/17 01:51:25;;;;;;;13.23;9.70;;;;;;;;;;2075826;28;20556;-58
2022/05/17 01:52:25;;;;;;;14.52;9.85;;;;;;;;;;2075597;28;20176;-57
2022/05/17 01:53:25;;;;;;;13.40;10.00;;;;;;;;;;2076250;28;20267;-58
2022/05/17 01:54:25;;;;;;;17.55;9.65;;;;;;;;;;2067234;28;20204;-57
2022/05/17 01:55:25;;;;;;;14.48;10.20;;;;;;;;;;2067900;28;20663;-54
2022/05/17 01:56:26;;;;;;;14.88;10.40;;;;;;;;;;2076209;28;20181;-56
2022/05/17 01:57:26;;;;;;;14.23;10.13;;;;;;;;;;2076137;28;20190;-56
2022/05/17 01:58:26;;;;;;;15.20;10.70;;;;;;;;;;2067692;28;20373;-54
2022/05/17 01:59:27;;;;;;;11.07;9.55;;;;;;;;;;2067794;28;20161;-56
2022/05/17 02:00:27;;;;;;;12.63;9.85;;;;;;;;;;2076334;28;20177;-55
2022/05/17 02:01:27;;;;;;;12.65;9.88;;;;;;;;;;2067557;28;20245;-55
2022/05/17 02:02:27;;;;;;;13.65;9.77;;;;;;;;;;2067883;28;20170;-56
2022/05/17 02:03:28;;;;;;;15.95;10.80;;;;;;;;;;2076627;28;20199;-58
2022/05/17 02:04:28;;;;;;;16.45;9.90;;;;;;;;;;2076308;28;20169;-57
2022/05/17 02:05:29;;;;;;;16.83;9.02;;;;;;;;;;2076480;28;20173;-54
2022/05/17 02:06:29;;;;;;;13.23;10.05;;;;;;;;;;2076699;28;20248;-53
2022/05/17 02:07:30;;;;;;;13.48;10.20;;;;;;;;;;2076779;28;20629;-56
2022/05/17 02:08:30;;;;;;;13.68;9.75;;;;;;;;;;2076886;28;20174;-59
2022/05/17 02:09:31;;;;;;;14.65;9.48;;;;;;;;;;2076816;28;20652;-56
2022/05/17 02:10:31;;;;;;;12.32;9.65;;;;;;;;;;2076495;28;20268;-58
2022/05/17 02:11:31;;;;;;;14.10;9.82;;;;;;;;;;2077073;28;20184;-56
2022/05/17 02:12:31;;;;;;;15.10;9.82;;;;;;;;;;2076918;28;20189;-56
2022/05/17 02:13:33;;;;;;;15.55;10.70;;;;;;;;;;2076494;28;20237;-57
2022/05/17 02:14:33;;;;;;;16.13;9.30;;;;;;;;;;2076723;28;20184;-56
2022/05/17 02:15:33;;;;;;;16.10;10.48;;;;;;;;;;2068032;28;20177;-56
2022/05/17 02:16:37;;;;;;;17.67;9.93;;;;;;;;;;2067961;28;20707;-58
2022/05/17 02:17:38;;;;;;;12.15;8.80;;;;;;;;;;2075682;28;20211;-56
2022/05/17 02:18:38;;;;;;;13.88;9.75;;;;;;;;;;2073815;28;20177;-55
2022/05/17 02:19:38;;;;;;;14.50;9.25;;;;;;;;;;2074487;28;20224;-57
2022/05/17 02:20:39;;;;;;;14.27;9.50;;;;;;;;;;2076564;28;20205;-56
2022/05/17 02:21:39;;;;;;;11.00;9.38;;;;;;;;;;2076681;28;20248;-57
2022/05/17 02:22:40;;;;;;;18.13;10.32;;;;;;;;;;2076254;28;20268;-57
2022/05/17 02:23:41;;;;;;;13.27;9.48;;;;;;;;;;2075729;28;20188;-56
2022/05/17 02:24:42;;;;;;;18.40;10.15;;;;;;;;;;2075878;28;20168;-57
2022/05/17 02:25:42;;;;;;;10.73;9.63;;;;;;;;;;2075715;28;20256;-55
2022/05/17 02:27:47;;;;;;;15.80;9.25;;;;;;;;;;2073205;28;20704;-55
2022/05/17 02:28:47;;;;;;;11.05;9.73;;;;;;;;;;2067675;28;20225;-58
2022/05/17 02:29:48;;;;;;;12.25;9.18;;;;;;;;;;2068964;28;20322;-54
2022/05/17 02:30:49;;;;;;;13.73;10.00;;;;;;;;;;2073680;28;20205;-50
2022/05/17 02:31:50;;;;;;;14.27;9.30;;;;;;;;;;2076830;28;20307;-57
2022/05/17 02:32:51;;;;;;;13.10;9.80;;;;;;;;;;2074996;28;20185;-53
2022/05/17 02:33:51;;;;;;;14.55;9.27;;;;;;;;;;2074343;28;20205;-58
2022/05/17 02:34:51;;;;;;;12.60;8.85;;;;;;;;;;2074671;28;20522;-55
2022/05/17 02:35:51;;;;;;;12.68;8.85;;;;;;;;;;2075880;28;20173;-57
2022/05/17 02:36:52;;;;;;;10.32;9.23;;;;;;;;;;2075365;28;20679;-56
2022/05/17 02:37:52;;;;;;;14.48;9.80;;;;;;;;;;2075232;28;20229;-59
2022/05/17 02:38:52;;;;;;;10.35;8.73;;;;;;;;;;2075795;28;20227;-57
2022/05/17 02:39:53;;;;;;;13.23;9.38;;;;;;;;;;2075330;28;20173;-58
2022/05/17 02:40:53;;;;;;;11.50;8.85;;;;;;;;;;2075013;28;20175;-55
2022/05/17 02:41:53;;;;;;;14.88;9.23;;;;;;;;;;2074834;28;20172;-56
2022/05/17 02:42:54;;;;;;;15.13;9.63;;;;;;;;;;2066652;28;20233;-54
2022/05/17 02:43:54;;;;;;;14.25;10.05;;;;;;;;;;2066345;28;20181;-54
2022/05/17 02:44:54;;;;;;;15.25;9.77;;;;;;;;;;2082308;28;20241;-57
2022/05/17 02:45:54;;;;;;;12.32;9.32;;;;;;;;;;2074611;28;20169;-56
2022/05/17 02:46:57;;;;;;;12.93;9.30;;;;;;;;;;2075028;28;20205;-56
2022/05/17 02:47:57;;;;;;;10.18;9.20;;;;;;;;;;2070844;28;20162;-57
2022/05/17 02:48:58;;;;;;;12.15;9.32;;;;;;;;;;2075028;28;20209;-57
2022/05/17 02:49:59;;;;;;;10.35;8.55;;;;;;;;;;2075047;28;20256;-57
2022/05/17 02:51:06;;;;;;;13.35;9.50;;;;;;;;;;2075067;28;20180;-56
2022/05/17 02:52:07;;;;;;;15.57;9.57;;;;;;;;;;2074801;28;20212;-57
2022/05/17 02:53:07;;;;;;;17.40;9.95;;;;;;;;;;2075110;28;20169;-59
2022/05/17 02:54:10;;;;;;;14.15;10.25;;;;;;;;;;2074464;28;20220;-55
2022/05/17 02:55:10;;;;;;;15.98;9.40;;;;;;;;;;2074720;28;20160;-56
2022/05/17 02:56:11;;;;;;;13.90;9.63;;;;;;;;;;2074695;28;20164;-55
2022/05/17 02:57:11;;;;;;;15.25;9.57;;;;;;;;;;2074258;28;20247;-57
2022/05/17 02:58:11;;;;;;;13.65;9.02;;;;;;;;;;2074348;28;20594;-61
2022/05/17 02:59:16;;;;;;;15.18;8.68;;;;;;;;;;2074482;28;20535;-51
2022/05/17 03:00:17;;;;;;;15.30;8.75;;;;;;;;;;2073948;28;20645;-53
2022/05/17 03:01:17;;;;;;;13.32;9.52;;;;;;;;;;2076023;28;20161;-56
2022/05/17 03:02:18;;;;;;;12.57;9.73;;;;;;;;;;2082747;28;20183;-57
2022/05/17 03:03:18;;;;;;;11.88;8.63;;;;;;;;;;2082976;28;20172;-56
2022/05/17 03:04:18;;;;;;;13.48;9.82;;;;;;;;;;2082700;28;20829;-54
2022/05/17 03:05:19;;;;;;;14.95;9.60;;;;;;;;;;2080308;28;20586;-57
2022/05/17 03:06:19;;;;;;;14.48;9.25;;;;;;;;;;2074984;28;20179;-55
2022/05/17 03:07:19;;;;;;;13.40;9.07;;;;;;;;;;2074396;28;20201;-53
2022/05/17 03:08:19;;;;;;;12.63;9.48;;;;;;;;;;2070782;28;20595;-53
2022/05/17 03:09:21;;;;;;;18.20;9.73;;;;;;;;;;2074075;28;20177;-54
2022/05/17 03:10:21;;;;;;;15.45;9.38;;;;;;;;;;2074739;28;20177;-56
2022/05/17 03:11:21;;;;;;;13.30;9.25;;;;;;;;;;2074359;28;20245;-52
2022/05/17 03:12:22;;;;;;;10.68;8.55;;;;;;;;;;2074459;28;20179;-53
2022/05/17 03:13:22;;;;;;;17.65;10.45;;;;;;;;;;2065521;28;20174;-55
2022/05/17 03:14:22;;;;;;;15.80;9.93;;;;;;;;;;2065633;28;20217;-56
2022/05/17 03:15:23;;;;;;;12.45;9.00;;;;;;;;;;2074475;28;20196;-57
2022/05/17 03:16:30;;;;;;;13.40;10.00;;;;;;;;;;2074292;28;20229;-54
2022/05/17 03:17:31;;;;;;;13.95;10.05;;;;;;;;;;2074257;28;20200;-56
2022/05/17 03:18:31;;;;;;;14.38;9.57;;;;;;;;;;2074463;28;20232;-56
2022/05/17 03:19:31;;;;;;;14.88;9.05;;;;;;;;;;2074426;28;20168;-55
2022/05/17 03:20:32;;;;;;;13.80;9.40;;;;;;;;;;2074815;28;20247;-54
2022/05/17 03:21:32;;;;;;;11.98;8.85;;;;;;;;;;2065863;28;20185;-58
2022/05/17 03:22:33;;;;;;;12.25;9.35;;;;;;;;;;2065623;28;20193;-58
2022/05/17 03:23:33;;;;;;;14.02;8.50;;;;;;;;;;2074664;28;20180;-56
2022/05/17 03:24:34;;;;;;;12.35;8.70;;;;;;;;;;2074269;28;20244;-56
2022/05/17 03:25:34;;;;;;;12.05;9.07;;;;;;;;;;2067084;28;20165;-54
2022/05/17 03:26:34;;;;;;;13.90;9.57;;;;;;;;;;2067282;28;20177;-56
2022/05/17 03:27:35;;;;;;;11.80;9.27;;;;;;;;;;2071250;28;20197;-56
2022/05/17 03:28:35;;;;;;;11.48;9.40;;;;;;;;;;2065798;28;20189;-58
2022/05/17 03:29:35;;;;;;;10.93;9.20;;;;;;;;;;2074953;28;20169;-55
2022/05/17 03:30:35;;;;;;;12.30;9.27;;;;;;;;;;2075401;28;20195;-55
2022/05/17 03:31:36;;;;;;;12.23;9.00;;;;;;;;;;2075526;28;20199;-58
2022/05/17 03:32:36;;;;;;;15.15;9.13;;;;;;;;;;2075463;28;20165;-55
2022/05/17 03:33:37;;;;;;;21.52;10.15;;;;;;;;;;2074941;28;20184;-56
2022/05/17 03:34:38;;;;;;;12.85;9.40;;;;;;;;;;2066166;28;20166;-55
2022/05/17 03:35:38;;;;;;;15.30;9.48;;;;;;;;;;2069872;28;20173;-57
2022/05/17 03:36:38;;;;;;;14.60;9.90;;;;;;;;;;2081762;28;20290;-55
2022/05/17 03:37:39;;;;;;;13.00;9.80;;;;;;;;;;2075607;28;20252;-58
2022/05/17 03:38:39;;;;;;;13.45;10.02;;;;;;;;;;2066869;28;20178;-58
2022/05/17 03:39:39;;;;;;;11.50;9.18;;;;;;;;;;2066802;28;20177;-56
2022/05/17 03:40:40;;;;;;;15.63;10.38;;;;;;;;;;2075456;28;20173;-58
2022/05/17 03:41:40;;;;;;;11.40;9.52;;;;;;;;;;2074613;28;20165;-58
2022/05/17 03:42:40;;;;;;;12.52;9.70;;;;;;;;;;2074614;28;20196;-54
2022/05/17 03:43:41;;;;;;;14.00;9.77;;;;;;;;;;2074690;28;20180;-53
2022/05/17 03:44:41;;;;;;;12.60;9.70;;;;;;;;;;2074179;28;20218;-56
2022/05/17 03:45:41;;;;;;;16.27;9.98;;;;;;;;;;2074589;28;20173;-54
2022/05/17 03:46:42;;;;;;;13.90;9.98;;;;;;;;;;2074121;28;20667;-55
2022/05/17 03:47:42;;;;;;;12.95;9.20;;;;;;;;;;2074388;28;20185;-56
2022/05/17 03:48:42;;;;;;;18.45;10.20;;;;;;;;;;2074656;28;20657;-55
2022/05/17 03:49:43;;;;;;;15.45;10.40;;;;;;;;;;2074800;28;20210;-55
2022/05/17 03:50:43;;;;;;;17.17;10.50;;;;;;;;;;2074875;28;20193;-55
2022/05/17 03:51:45;;;;;;;16.85;9.50;;;;;;;;;;2074375;28;20165;-56
2022/05/17 03:52:47;;;;;;;16.35;9.95;;;;;;;;;;2074417;28;20268;-55
2022/05/17 03:53:49;;;;;;;11.43;9.80;;;;;;;;;;2073368;28;20192;-54
2022/05/17 03:54:53;;;;;;;17.77;10.85;;;;;;;;;;2064575;28;20176;-53
2022/05/17 03:55:53;;;;;;;15.13;10.27;;;;;;;;;;2065458;28;20177;-53
2022/05/17 03:56:53;;;;;;;13.93;9.70;;;;;;;;;;2064541;28;20169;-54
2022/05/17 03:57:53;;;;;;;14.77;9.73;;;;;;;;;;2065177;28;20177;-52
2022/05/17 03:58:54;;;;;;;12.35;9.55;;;;;;;;;;2064955;28;20173;-52
2022/05/17 03:59:54;;;;;;;14.68;10.48;;;;;;;;;;2073739;28;20176;-51
2022/05/17 04:00:55;;;;;;;15.43;9.52;;;;;;;;;;2074433;28;20177;-57
2022/05/17 04:01:55;;;;;;;10.88;9.32;;;;;;;;;;2074275;28;20180;-56
2022/05/17 04:02:55;;;;;;;16.27;10.82;;;;;;;;;;2074180;28;20212;-55
2022/05/17 04:03:55;;;;;;;15.18;9.52;;;;;;;;;;2065895;28;20248;-58
2022/05/17 04:04:56;;;;;;;15.73;9.98;;;;;;;;;;2065376;28;20189;-54
2022/05/17 04:05:56;;;;;;;13.50;10.35;;;;;;;;;;2074573;28;20236;-57
2022/05/17 04:06:56;;;;;;;13.23;9.55;;;;;;;;;;2074250;28;20175;-54
2022/05/17 04:07:56;;;;;;;12.57;10.32;;;;;;;;;;2074761;28;20176;-53
2022/05/17 04:08:57;;;;;;;13.32;10.60;;;;;;;;;;2074450;28;20169;-54
2022/05/17 04:09:57;;;;;;;13.90;10.45;;;;;;;;;;2073505;28;20187;-53
2022/05/17 04:10:58;;;;;;;12.45;9.27;;;;;;;;;;2073358;28;20161;-55
2022/05/17 04:11:58;;;;;;;15.20;9.95;;;;;;;;;;2073428;28;20650;-54
2022/05/17 04:12:58;;;;;;;15.00;10.45;;;;;;;;;;2073661;28;20165;-54
2022/05/17 04:13:58;;;;;;;15.80;10.32;;;;;;;;;;2072573;28;20287;-53
2022/05/17 04:14:58;;;;;;;16.08;9.93;;;;;;;;;;2074146;28;20177;-50
2022/05/17 04:15:59;;;;;;;17.25;11.32;;;;;;;;;;2078319;28;20605;-53
2022/05/17 04:17:00;;;;;;;13.38;9.57;;;;;;;;;;2079037;28;20641;-53
2022/05/17 04:18:00;;;;;;;14.75;10.00;;;;;;;;;;2073345;28;20177;-54
2022/05/17 04:19:00;;;;;;;14.60;9.82;;;;;;;;;;2073530;28;20216;-50
2022/05/17 04:20:03;;;;;;;13.43;10.10;;;;;;;;;;2075110;28;20177;-54
2022/05/17 04:21:04;;;;;;;13.82;9.43;;;;;;;;;;2081453;28;20172;-50
2022/05/17 04:22:09;;;;;;;12.45;9.85;;;;;;;;;;2074784;28;20222;-53
2022/05/17 04:23:09;;;;;;;12.73;9.75;;;;;;;;;;2071604;28;20678;-54
2022/05/17 04:24:10;;;;;;;12.85;9.82;;;;;;;;;;2064068;28;20224;-52
2022/05/17 04:25:11;;;;;;;16.48;10.77;;;;;;;;;;2059894;28;20178;-56
2022/05/17 04:26:14;;;;;;;16.73;10.40;;;;;;;;;;2072761;28;20276;-52
2022/05/17 04:27:14;;;;;;;15.27;10.52;;;;;;;;;;2064414;28;20224;-51
2022/05/17 04:28:15;;;;;;;14.32;10.55;;;;;;;;;;2064472;28;20204;-55
2022/05/17 04:29:16;;;;;;;12.13;9.65;;;;;;;;;;2064744;28;20185;-53
2022/05/17 04:30:16;;;;;;;13.43;9.98;;;;;;;;;;2072617;28;20565;-52
2022/05/17 04:31:19;;;;;;;12.63;9.48;;;;;;;;;;2064484;28;20255;-51
2022/05/17 04:32:21;;;;;;;15.73;10.13;;;;;;;;;;2064388;28;20173;-55
2022/05/17 04:33:22;;;;;;;11.10;9.98;;;;;;;;;;2064644;28;20685;-51
2022/05/17 04:34:22;;;;;;;13.35;10.07;;;;;;;;;;2064124;28;20220;-51
2022/05/17 04:35:22;;;;;;;15.43;9.57;;;;;;;;;;2074633;28;20260;-51
2022/05/17 04:36:23;;;;;;;16.98;9.63;;;;;;;;;;2081513;28;20175;-52
2022/05/17 04:37:23;;;;;;;13.98;9.95;;;;;;;;;;2081463;28;20271;-55
2022/05/17 04:38:24;;;;;;;12.32;9.57;;;;;;;;;;2059605;28;20178;-54
2022/05/17 04:39:24;;;;;;;16.45;10.02;;;;;;;;;;2056786;28;20198;-54
2022/05/17 04:40:24;;;;;;;16.52;10.32;;;;;;;;;;2073075;28;20415;-54
2022/05/17 04:41:25;;;;;;;14.27;10.25;;;;;;;;;;2074727;28;20180;-52
2022/05/17 04:42:25;;;;;;;13.80;9.25;;;;;;;;;;2074781;28;20588;-57
2022/05/17 04:43:26;;;;;;;16.65;9.98;;;;;;;;;;2075253;28;20260;-56
2022/05/17 04:44:27;;;;;;;14.73;10.25;;;;;;;;;;2065290;28;20182;-55
2022/05/17 04:45:27;;;;;;;15.10;9.88;;;;;;;;;;2058351;28;20163;-53
2022/05/17 04:46:27;;;;;;;16.08;9.18;;;;;;;;;;2065926;28;20200;-55
2022/05/17 04:47:28;;;;;;;12.68;9.73;;;;;;;;;;2074960;28;20195;-55
2022/05/17 04:48:29;;;;;;;13.13;9.38;;;;;;;;;;2074832;28;20248;-53
2022/05/17 04:49:29;;;;;;;12.23;8.57;;;;;;;;;;2074712;28;20552;-53
2022/05/17 04:50:30;;;;;;;15.98;9.55;;;;;;;;;;2066156;28;20169;-55
2022/05/17 04:51:32;;;;;;;11.63;9.02;;;;;;;;;;2065982;28;20209;-53
2022/05/17 04:52:32;;;;;;;13.25;8.45;;;;;;;;;;2066022;28;20161;-55
2022/05/17 04:53:33;;;;;;;12.02;9.45;;;;;;;;;;2065868;28;20233;-53
2022/05/17 04:54:35;;;;;;;16.80;9.57;;;;;;;;;;2074491;28;20173;-52
2022/05/17 04:55:35;;;;;;;17.05;10.23;;;;;;;;;;2065884;28;20177;-50
2022/05/17 04:56:35;;;;;;;14.63;9.38;;;;;;;;;;2066075;28;20537;-50
2022/05/17 04:57:36;;;;;;;14.57;9.80;;;;;;;;;;2074520;28;20246;-53
2022/05/17 04:58:38;;;;;;;17.08;9.48;;;;;;;;;;2074433;28;20302;-51
2022/05/17 04:59:39;;;;;;;11.48;9.30;;;;;;;;;;2065872;28;20170;-53
2022/05/17 05:00:39;;;;;;;15.32;9.07;;;;;;;;;;2065806;28;20169;-55
2022/05/17 05:01:39;;;;;;;13.75;9.25;;;;;;;;;;2065820;28;20209;-52
2022/05/17 05:02:41;;;;;;;11.95;8.35;;;;;;;;;;2073784;28;20614;-55
2022/05/17 05:03:41;;;;;;;15.00;9.50;;;;;;;;;;2073834;28;20209;-55
2022/05/17 05:04:41;;;;;;;15.25;8.90;;;;;;;;;;2074158;28;20177;-53
2022/05/17 05:05:41;;;;;;;12.75;9.57;;;;;;;;;;2074488;28;20199;-53
2022/05/17 05:06:42;;;;;;;15.23;8.90;;;;;;;;;;2074508;28;20577;-48
2022/05/17 05:07:42;;;;;;;14.65;9.52;;;;;;;;;;2074402;28;20193;-51
2022/05/17 05:08:43;;;;;;;12.88;9.90;;;;;;;;;;2065629;28;20201;-53
2022/05/17 05:09:45;;;;;;;12.07;9.07;;;;;;;;;;2065823;28;20251;-53
2022/05/17 05:10:47;;;;;;;15.90;8.65;;;;;;;;;;2073968;28;20191;-50
2022/05/17 05:11:52;;;;;;;20.83;8.85;;;;;;;;;;2074118;28;20175;-51
2022/05/17 05:12:53;;;;;;;12.60;8.73;;;;;;;;;;2074546;28;20656;-57
2022/05/17 05:13:54;;;;;;;14.57;8.77;;;;;;;;;;2074061;28;20295;-52
2022/05/17 05:14:55;;;;;;;17.00;9.30;;;;;;;;;;2065493;28;20251;-56
2022/05/17 05:15:56;;;;;;;11.93;8.80;;;;;;;;;;2057807;28;20741;-56
2022/05/17 05:16:59;;;;;;;13.30;9.73;;;;;;;;;;2065729;28;20581;-56
2022/05/17 05:18:00;;;;;;;13.85;9.77;;;;;;;;;;2073916;28;20225;-55
2022/05/17 05:19:00;;;;;;;14.32;8.73;;;;;;;;;;2072924;28;20184;-53
2022/05/17 05:20:01;;;;;;;11.93;9.25;;;;;;;;;;2071319;28;20642;-54
2022/05/17 05:21:02;;;;;;;12.48;8.60;;;;;;;;;;2074032;28;20169;-53
2022/05/17 05:22:03;;;;;;;15.38;8.82;;;;;;;;;;2074143;28;20630;-53
2022/05/17 05:23:03;;;;;;;14.65;9.02;;;;;;;;;;2074347;28;20173;-52
2022/05/17 05:24:04;;;;;;;12.70;8.57;;;;;;;;;;2073969;28;20200;-50
2022/05/17 05:25:05;;;;;;;16.73;9.05;;;;;;;;;;2072834;28;20192;-55
2022/05/17 05:26:06;;;;;;;10.43;8.55;;;;;;;;;;2066151;28;20209;-58
2022/05/17 05:27:07;;;;;;;13.38;9.20;;;;;;;;;;2065097;28;20197;-52
2022/05/17 05:28:08;;;;;;;15.40;8.73;;;;;;;;;;2073995;28;20173;-53
2022/05/17 05:29:09;;;;;;;14.48;8.73;;;;;;;;;;2073845;28;20200;-58
2022/05/17 05:30:10;;;;;;;10.07;8.57;;;;;;;;;;2067700;28;20185;-53
2022/05/17 05:31:13;;;;;;;13.85;8.00;;;;;;;;;;2065185;28;20177;-57
2022/05/17 05:32:13;;;;;;;11.07;8.52;;;;;;;;;;2073895;28;20630;-52
2022/05/17 05:33:14;;;;;;;13.85;8.70;;;;;;;;;;2064876;28;20205;-57
2022/05/17 05:34:14;;;;;;;14.35;8.95;;;;;;;;;;2064892;28;20193;-54
2022/05/17 05:35:16;;;;;;;13.15;7.97;;;;;;;;;;2074150;28;20692;-50
2022/05/17 05:36:16;;;;;;;12.60;8.15;;;;;;;;;;2082130;28;20243;-58
2022/05/17 05:37:16;;;;;;;11.38;8.30;;;;;;;;;;2081948;28;20743;-57
2022/05/17 05:38:17;;;;;;;11.32;8.25;;;;;;;;;;2082154;28;20204;-57
2022/05/17 05:39:17;;;;;;;9.38;7.95;;;;;;;;;;2082360;28;20167;-56
2022/05/17 05:40:18;;;;;;;13.68;8.02;;;;;;;;;;2082267;28;20219;-54
2022/05/17 05:41:19;;;;;;;8.68;7.28;;;;;;;;;;2073584;28;20165;-59
2022/05/17 05:42:19;;;;;;;13.02;8.05;;;;;;;;;;2065478;28;20541;-58
2022/05/17 05:43:20;;;;;;;10.02;8.02;;;;;;;;;;2065477;28;20217;-55
2022/05/17 05:44:21;;;;;;;12.85;8.45;;;;;;;;;;2065182;28;20250;-60
2022/05/17 05:45:21;;;;;;;14.43;8.25;;;;;;;;;;2073638;28;20648;-61
2022/05/17 05:46:21;;;;;;;10.32;7.93;;;;;;;;;;2073898;28;20221;-58
2022/05/17 05:47:21;;;;;;;10.98;8.35;;;;;;;;;;2065640;28;20223;-59
2022/05/17 05:48:23;;;;;;;11.63;8.57;;;;;;;;;;2074017;28;20271;-57
2022/05/17 05:49:23;;;;;;;11.55;8.00;;;;;;;;;;2074489;28;20708;-62
2022/05/17 05:50:24;;;;;;;15.05;7.68;;;;;;;;;;2074525;28;20177;-58
2022/05/17 05:51:24;;;;;;;9.40;7.80;;;;;;;;;;2074128;28;20169;-57
2022/05/17 05:52:28;;;;;;;12.63;7.82;;;;;;;;;;2074572;28;20177;-60
2022/05/17 05:53:28;;;;;;;11.02;8.43;;;;;;;;;;2074221;28;20176;-59
2022/05/17 05:54:28;;;;;;;11.73;7.40;;;;;;;;;;2065212;28;20209;-61
2022/05/17 05:55:28;;;;;;;11.35;8.48;;;;;;;;;;2065792;28;20174;-61
2022/05/17 05:56:29;;;;;;;10.90;7.88;;;;;;;;;;2065744;28;20161;-57
2022/05/17 05:57:29;;;;;;;15.60;8.00;;;;;;;;;;2065444;28;20194;-59
2022/05/17 05:58:31;;;;;;;13.60;8.40;;;;;;;;;;2065655;28;20180;-56
2022/05/17 05:59:32;;;;;;;11.00;8.57;;;;;;;;;;2057623;28;20703;-57
2022/05/17 06:00:33;;;;;;;15.60;8.25;;;;;;;;;;2065731;28;20161;-61
2022/05/17 06:01:33;;;;;;;12.73;8.02;;;;;;;;;;2074264;28;20634;-53
2022/05/17 06:02:34;;;;;;;11.88;8.13;;;;;;;;;;2074332;28;20649;-54